createdAt,value
2017-10-10T00:00:11.417Z,0
2017-10-10T00:01:11.097Z,0
2017-10-10T00:02:11.056Z,0
2017-10-10T00:03:11.392Z,0
2017-10-10T00:04:11.367Z,0
2017-10-10T00:05:11.734Z,0
2017-10-10T00:06:12.384Z,0
2017-10-10T00:07:10.989Z,0
2017-10-10T00:08:10.986Z,0
2017-10-10T00:09:12.001Z,0
2017-10-10T00:10:10.954Z,0
2017-10-10T00:11:11.626Z,0
2017-10-10T00:12:11.654Z,0
2017-10-10T00:13:11.958Z,0
2017-10-10T00:14:10.912Z,0
2017-10-10T00:15:11.242Z,0
2017-10-10T00:16:10.889Z,0
2017-10-10T00:17:11.578Z,0
2017-10-10T00:18:11.564Z,0
2017-10-10T00:19:11.561Z,0
2017-10-10T00:20:11.180Z,0
2017-10-10T00:21:10.863Z,0
2017-10-10T00:22:10.822Z,0
2017-10-10T00:23:10.823Z,0
2017-10-10T00:24:11.499Z,0
2017-10-10T00:25:11.130Z,0
2017-10-10T00:26:11.118Z,0
2017-10-10T00:27:11.803Z,0
2017-10-10T00:28:10.759Z,0
2017-10-10T00:29:11.774Z,0
2017-10-10T00:30:11.753Z,0
2017-10-10T00:31:10.723Z,0
2017-10-10T00:32:11.416Z,0
2017-10-10T00:33:10.695Z,0
2017-10-10T00:34:11.710Z,0
2017-10-10T00:35:11.033Z,0
2017-10-10T00:36:11.018Z,0
2017-10-10T00:37:10.991Z,0
2017-10-10T00:38:11.334Z,0
2017-10-10T00:39:11.670Z,0
2017-10-10T00:40:11.650Z,0
2017-10-10T00:41:10.625Z,0
2017-10-10T00:42:11.616Z,0
2017-10-10T00:43:10.926Z,0
2017-10-10T00:44:11.267Z,0
2017-10-10T00:45:10.565Z,0
2017-10-10T00:46:10.555Z,0
2017-10-10T00:47:11.638Z,0
2017-10-10T00:48:10.866Z,0
2017-10-10T00:49:10.856Z,0
2017-10-10T00:50:10.855Z,0
2017-10-10T00:51:11.195Z,0
2017-10-10T00:52:10.486Z,0
2017-10-10T00:53:11.180Z,0
2017-10-10T00:54:10.473Z,0
2017-10-10T00:55:10.799Z,0
2017-10-10T00:56:11.121Z,0
2017-10-10T00:57:11.104Z,0
2017-10-10T00:58:11.454Z,0
2017-10-10T00:59:11.437Z,0
2017-10-10T01:00:10.732Z,0
2017-10-10T01:01:11.068Z,0
2017-10-10T01:02:11.046Z,0
2017-10-10T01:03:11.094Z,0
2017-10-10T01:04:10.369Z,0
2017-10-10T01:05:11.073Z,0
2017-10-10T01:06:10.335Z,0
2017-10-10T01:07:10.993Z,0
2017-10-10T01:08:11.031Z,0
2017-10-10T01:09:10.632Z,0
2017-10-10T01:10:10.301Z,0
2017-10-10T01:11:10.952Z,0
2017-10-10T01:12:10.622Z,0
2017-10-10T01:13:10.926Z,0
2017-10-10T01:14:10.929Z,0
2017-10-10T01:15:10.632Z,0
2017-10-10T01:16:10.900Z,0
2017-10-10T01:17:10.884Z,0
2017-10-10T01:18:10.536Z,0
2017-10-10T01:19:10.539Z,0
2017-10-10T01:20:10.204Z,0
2017-10-10T01:21:10.535Z,0
2017-10-10T01:22:10.514Z,0
2017-10-10T01:23:10.482Z,0
2017-10-10T01:24:11.159Z,0
2017-10-10T01:25:10.808Z,0
2017-10-10T01:26:10.154Z,0
2017-10-10T01:27:10.445Z,0
2017-10-10T01:28:10.445Z,0
2017-10-10T01:29:10.067Z,0
2017-10-10T01:30:11.080Z,0
2017-10-10T01:31:10.402Z,0
2017-10-10T01:32:10.384Z,0
2017-10-10T01:33:10.042Z,0
2017-10-10T01:34:10.706Z,0
2017-10-10T01:35:10.115Z,0
2017-10-10T01:36:11.044Z,0
2017-10-10T01:37:11.490Z,0
2017-10-10T01:38:10.409Z,0
2017-10-10T01:39:10.166Z,0
2017-10-10T01:40:10.558Z,0
2017-10-10T01:41:10.908Z,0
2017-10-10T01:42:11.329Z,0
2017-10-10T01:43:10.299Z,0
2017-10-10T01:44:10.265Z,0
2017-10-10T01:45:09.893Z,0
2017-10-10T01:46:10.292Z,0
2017-10-10T01:47:10.211Z,0
2017-10-10T01:48:09.953Z,0
2017-10-10T01:49:10.185Z,0
2017-10-10T01:50:10.199Z,0
2017-10-10T01:51:10.469Z,0
2017-10-10T01:52:10.851Z,0
2017-10-10T01:53:09.804Z,0
2017-10-10T01:54:09.814Z,0
2017-10-10T01:55:10.118Z,0
2017-10-10T01:56:10.136Z,0
2017-10-10T01:57:10.433Z,0
2017-10-10T01:58:10.091Z,0
2017-10-10T01:59:09.739Z,0
2017-10-10T02:00:10.082Z,0
2017-10-10T02:01:09.708Z,0
2017-10-10T02:02:10.071Z,0
2017-10-10T02:03:10.393Z,0
2017-10-10T02:04:10.042Z,0
2017-10-10T02:05:10.353Z,0
2017-10-10T02:06:09.653Z,0
2017-10-10T02:07:09.986Z,0
2017-10-10T02:08:10.691Z,0
2017-10-10T02:09:09.964Z,0
2017-10-10T02:10:10.346Z,0
2017-10-10T02:11:10.965Z,0
2017-10-10T02:12:09.933Z,0
2017-10-10T02:13:09.918Z,0
2017-10-10T02:14:09.903Z,0
2017-10-10T02:15:09.750Z,0
2017-10-10T02:16:10.343Z,0
2017-10-10T02:17:09.884Z,0
2017-10-10T02:18:10.203Z,0
2017-10-10T02:19:10.555Z,0
2017-10-10T02:20:09.842Z,0
2017-10-10T02:21:10.172Z,0
2017-10-10T02:22:09.834Z,0
2017-10-10T02:23:09.469Z,0
2017-10-10T02:24:09.796Z,0
2017-10-10T02:25:10.129Z,0
2017-10-10T02:26:09.451Z,0
2017-10-10T02:27:10.119Z,0
2017-10-10T02:28:09.771Z,0
2017-10-10T02:29:09.756Z,0
2017-10-10T02:30:09.763Z,0
2017-10-10T02:31:10.058Z,0
2017-10-10T02:32:09.406Z,0
2017-10-10T02:33:09.698Z,0
2017-10-10T02:34:09.792Z,0
2017-10-10T02:35:10.038Z,0
2017-10-10T02:36:09.330Z,0
2017-10-10T02:37:09.653Z,0
2017-10-10T02:38:10.015Z,0
2017-10-10T02:39:09.293Z,0
2017-10-10T02:40:09.639Z,0
2017-10-10T02:41:09.971Z,0
2017-10-10T02:42:09.629Z,0
2017-10-10T02:43:09.595Z,0
2017-10-10T02:44:09.943Z,0
2017-10-10T02:45:09.919Z,0
2017-10-10T02:46:10.272Z,0
2017-10-10T02:47:09.599Z,0
2017-10-10T02:48:09.557Z,0
2017-10-10T02:49:09.872Z,0
2017-10-10T02:50:09.852Z,0
2017-10-10T02:51:09.508Z,0
2017-10-10T02:52:09.844Z,0
2017-10-10T02:53:09.481Z,0
2017-10-10T02:54:09.189Z,0
2017-10-10T02:55:09.811Z,0
2017-10-10T02:56:09.470Z,0
2017-10-10T02:57:09.447Z,0
2017-10-10T02:58:09.438Z,0
2017-10-10T02:59:09.424Z,0
2017-10-10T03:00:09.439Z,0
2017-10-10T03:01:09.058Z,0
2017-10-10T03:02:09.411Z,0
2017-10-10T03:03:09.718Z,0
2017-10-10T03:04:09.713Z,0
2017-10-10T03:05:09.015Z,0
2017-10-10T03:06:09.712Z,0
2017-10-10T03:07:09.332Z,0
2017-10-10T03:08:09.343Z,0
2017-10-10T03:09:09.692Z,0
2017-10-10T03:10:09.650Z,0
2017-10-10T03:11:08.979Z,0
2017-10-10T03:12:09.284Z,0
2017-10-10T03:13:09.278Z,0
2017-10-10T03:14:08.950Z,0
2017-10-10T03:15:09.265Z,0
2017-10-10T03:16:09.623Z,0
2017-10-10T03:17:09.577Z,0
2017-10-10T03:18:09.933Z,0
2017-10-10T03:19:09.252Z,0
2017-10-10T03:20:09.541Z,0
2017-10-10T03:21:09.917Z,0
2017-10-10T03:22:08.847Z,0
2017-10-10T03:23:09.176Z,0
2017-10-10T03:24:09.529Z,0
2017-10-10T03:25:09.170Z,0
2017-10-10T03:26:09.157Z,0
2017-10-10T03:27:09.476Z,0
2017-10-10T03:28:09.462Z,0
2017-10-10T03:29:09.136Z,0
2017-10-10T03:30:09.142Z,0
2017-10-10T03:31:08.756Z,0
2017-10-10T03:32:09.446Z,0
2017-10-10T03:33:09.468Z,0
2017-10-10T03:34:09.443Z,0
2017-10-10T03:35:08.715Z,0
2017-10-10T03:36:09.386Z,0
2017-10-10T03:37:09.035Z,0
2017-10-10T03:38:09.398Z,0
2017-10-10T03:39:09.049Z,0
2017-10-10T03:40:09.023Z,0
2017-10-10T03:41:09.350Z,0
2017-10-10T03:42:08.657Z,0
2017-10-10T03:43:09.000Z,0
2017-10-10T03:44:09.000Z,0
2017-10-10T03:45:08.641Z,0
2017-10-10T03:46:08.948Z,0
2017-10-10T03:47:09.633Z,0
2017-10-10T03:48:09.273Z,0
2017-10-10T03:49:08.937Z,0
2017-10-10T03:50:08.930Z,0
2017-10-10T03:51:08.578Z,0
2017-10-10T03:52:08.918Z,0
2017-10-10T03:53:08.896Z,0
2017-10-10T03:54:08.875Z,0
2017-10-10T03:55:08.858Z,0
2017-10-10T03:56:08.874Z,0
2017-10-10T03:57:08.497Z,0
2017-10-10T03:58:09.173Z,0
2017-10-10T03:59:08.845Z,0
2017-10-10T04:00:09.147Z,0
2017-10-10T04:01:08.808Z,0
2017-10-10T04:02:08.807Z,0
2017-10-10T04:03:08.780Z,0
2017-10-10T04:04:08.793Z,0
2017-10-10T04:05:09.459Z,0
2017-10-10T04:06:09.108Z,0
2017-10-10T04:07:09.093Z,0
2017-10-10T04:08:08.740Z,0
2017-10-10T04:09:09.062Z,0
2017-10-10T04:10:08.709Z,0
2017-10-10T04:11:08.728Z,0
2017-10-10T04:12:08.762Z,0
2017-10-10T04:13:08.357Z,0
2017-10-10T04:14:08.701Z,0
2017-10-10T04:15:09.014Z,0
2017-10-10T04:16:09.036Z,0
2017-10-10T04:17:08.646Z,0
2017-10-10T04:18:08.637Z,0
2017-10-10T04:19:08.643Z,0
2017-10-10T04:20:08.307Z,0
2017-10-10T04:21:08.612Z,0
2017-10-10T04:22:09.273Z,0
2017-10-10T04:23:08.931Z,0
2017-10-10T04:24:08.580Z,0
2017-10-10T04:25:08.234Z,0
2017-10-10T04:26:08.920Z,0
2017-10-10T04:27:08.554Z,0
2017-10-10T04:28:08.876Z,0
2017-10-10T04:29:08.549Z,0
2017-10-10T04:30:08.875Z,0
2017-10-10T04:31:08.180Z,0
2017-10-10T04:32:08.844Z,0
2017-10-10T04:33:08.844Z,0
2017-10-10T04:34:08.481Z,0
2017-10-10T04:35:08.473Z,0
2017-10-10T04:36:08.462Z,0
2017-10-10T04:37:08.811Z,0
2017-10-10T04:38:08.444Z,0
2017-10-10T04:39:08.136Z,0
2017-10-10T04:40:08.770Z,0
2017-10-10T04:41:08.814Z,0
2017-10-10T04:42:08.085Z,0
2017-10-10T04:43:08.075Z,0
2017-10-10T04:44:09.403Z,0
2017-10-10T04:45:08.396Z,0
2017-10-10T04:46:08.705Z,0
2017-10-10T04:47:08.379Z,0
2017-10-10T04:48:08.693Z,0
2017-10-10T04:49:07.994Z,0
2017-10-10T04:50:08.396Z,0
2017-10-10T04:51:08.333Z,0
2017-10-10T04:52:07.982Z,0
2017-10-10T04:53:08.994Z,0
2017-10-10T04:54:08.651Z,0
2017-10-10T04:55:07.938Z,0
2017-10-10T04:56:08.280Z,0
2017-10-10T04:57:08.274Z,0
2017-10-10T04:58:08.613Z,0
2017-10-10T04:59:08.254Z,0
2017-10-10T05:00:08.250Z,0
2017-10-10T05:01:07.898Z,0
2017-10-10T05:02:08.219Z,0
2017-10-10T05:03:08.218Z,0
2017-10-10T05:04:08.536Z,0
2017-10-10T05:05:08.205Z,0
2017-10-10T05:06:08.543Z,0
2017-10-10T05:07:07.854Z,0
2017-10-10T05:08:08.523Z,0
2017-10-10T05:09:08.512Z,0
2017-10-10T05:10:08.496Z,0
2017-10-10T05:11:08.459Z,0
2017-10-10T05:12:08.474Z,0
2017-10-10T05:13:07.770Z,0
2017-10-10T05:14:07.746Z,0
2017-10-10T05:15:08.796Z,0
2017-10-10T05:16:08.065Z,0
2017-10-10T05:17:08.072Z,0
2017-10-10T05:18:08.399Z,0
2017-10-10T05:19:08.032Z,0
2017-10-10T05:20:08.589Z,0
2017-10-10T05:21:07.690Z,0
2017-10-10T05:22:07.664Z,0
2017-10-10T05:23:07.995Z,0
2017-10-10T05:24:07.645Z,0
2017-10-10T05:25:08.314Z,0
2017-10-10T05:26:07.971Z,0
2017-10-10T05:27:08.329Z,0
2017-10-10T05:28:08.277Z,0
2017-10-10T05:29:08.290Z,0
2017-10-10T05:30:07.954Z,0
2017-10-10T05:31:07.565Z,0
2017-10-10T05:32:08.615Z,0
2017-10-10T05:33:08.234Z,0
2017-10-10T05:34:07.881Z,0
2017-10-10T05:35:07.537Z,0
2017-10-10T05:36:08.566Z,0
2017-10-10T05:37:08.539Z,0
2017-10-10T05:38:07.493Z,0
2017-10-10T05:39:08.181Z,0
2017-10-10T05:40:08.150Z,0
2017-10-10T05:41:07.847Z,0
2017-10-10T05:42:08.147Z,0
2017-10-10T05:43:07.805Z,0
2017-10-10T05:44:07.770Z,0
2017-10-10T05:45:07.762Z,5
2017-10-10T05:46:08.459Z,5
2017-10-10T05:47:07.751Z,5
2017-10-10T05:48:07.742Z,5
2017-10-10T05:49:07.732Z,5
2017-10-10T05:50:07.700Z,5
2017-10-10T05:51:07.708Z,5
2017-10-10T05:52:07.751Z,5
2017-10-10T05:53:07.677Z,5
2017-10-10T05:54:08.375Z,5
2017-10-10T05:55:07.671Z,5
2017-10-10T05:56:08.002Z,5
2017-10-10T05:57:07.632Z,5
2017-10-10T05:58:07.317Z,10
2017-10-10T05:59:08.289Z,5
2017-10-10T06:00:07.940Z,10
2017-10-10T06:01:07.930Z,10
2017-10-10T06:02:07.251Z,10
2017-10-10T06:03:07.244Z,10
2017-10-10T06:04:07.585Z,10
2017-10-10T06:05:07.205Z,10
2017-10-10T06:06:07.537Z,10
2017-10-10T06:07:07.881Z,10
2017-10-10T06:08:07.510Z,10
2017-10-10T06:09:07.499Z,10
2017-10-10T06:10:08.189Z,10
2017-10-10T06:11:07.508Z,15
2017-10-10T06:12:07.466Z,15
2017-10-10T06:13:08.183Z,15
2017-10-10T06:14:08.149Z,15
2017-10-10T06:15:07.774Z,15
2017-10-10T06:16:07.783Z,25
2017-10-10T06:17:07.762Z,25
2017-10-10T06:18:07.978Z,30
2017-10-10T06:19:07.444Z,30
2017-10-10T06:20:07.405Z,30
2017-10-10T06:21:07.709Z,35
2017-10-10T06:22:07.698Z,35
2017-10-10T06:23:07.344Z,35
2017-10-10T06:24:08.056Z,35
2017-10-10T06:25:07.026Z,40
2017-10-10T06:26:07.321Z,45
2017-10-10T06:27:07.744Z,45
2017-10-10T06:28:07.303Z,50
2017-10-10T06:29:07.653Z,55
2017-10-10T06:30:07.280Z,55
2017-10-10T06:31:07.268Z,60
2017-10-10T06:32:07.301Z,55
2017-10-10T06:33:06.902Z,50
2017-10-10T06:34:07.231Z,50
2017-10-10T06:35:07.599Z,45
2017-10-10T06:36:06.922Z,45
2017-10-10T06:37:07.254Z,45
2017-10-10T06:38:07.541Z,40
2017-10-10T06:39:07.624Z,40
2017-10-10T06:40:07.873Z,40
2017-10-10T06:41:06.821Z,40
2017-10-10T06:42:07.494Z,40
2017-10-10T06:43:07.601Z,40
2017-10-10T06:44:07.493Z,35
2017-10-10T06:45:07.135Z,40
2017-10-10T06:46:07.173Z,40
2017-10-10T06:47:07.101Z,40
2017-10-10T06:48:07.391Z,45
2017-10-10T06:49:07.486Z,45
2017-10-10T06:50:07.283Z,35
2017-10-10T06:51:07.720Z,30
2017-10-10T06:52:07.535Z,35
2017-10-10T06:53:07.739Z,30
2017-10-10T06:54:07.366Z,30
2017-10-10T06:55:07.371Z,25
2017-10-10T06:56:07.000Z,25
2017-10-10T06:57:07.688Z,25
2017-10-10T06:58:07.313Z,25
2017-10-10T06:59:06.993Z,30
2017-10-10T07:00:07.300Z,20
2017-10-10T07:01:06.948Z,20
2017-10-10T07:02:07.618Z,20
2017-10-10T07:03:06.928Z,20
2017-10-10T07:04:06.924Z,20
2017-10-10T07:05:06.579Z,15
2017-10-10T07:06:06.933Z,20
2017-10-10T07:07:06.576Z,20
2017-10-10T07:08:07.559Z,25
2017-10-10T07:09:06.861Z,25
2017-10-10T07:10:06.858Z,25
2017-10-10T07:11:07.185Z,25
2017-10-10T07:12:07.562Z,20
2017-10-10T07:13:06.488Z,25
2017-10-10T07:14:07.547Z,25
2017-10-10T07:15:06.477Z,30
2017-10-10T07:16:06.790Z,30
2017-10-10T07:17:06.782Z,25
2017-10-10T07:18:07.147Z,20
2017-10-10T07:19:06.760Z,25
2017-10-10T07:20:06.747Z,25
2017-10-10T07:21:06.738Z,25
2017-10-10T07:22:06.386Z,30
2017-10-10T07:23:07.422Z,35
2017-10-10T07:24:06.711Z,40
2017-10-10T07:25:06.706Z,40
2017-10-10T07:26:07.032Z,45
2017-10-10T07:27:06.351Z,45
2017-10-10T07:28:07.377Z,50
2017-10-10T07:29:06.998Z,50
2017-10-10T07:30:06.665Z,45
2017-10-10T07:31:06.668Z,45
2017-10-10T07:32:06.989Z,40
2017-10-10T07:33:06.439Z,45
2017-10-10T07:34:06.615Z,45
2017-10-10T07:35:06.593Z,50
2017-10-10T07:36:06.944Z,55
2017-10-10T07:37:06.231Z,50
2017-10-10T07:38:06.590Z,45
2017-10-10T07:39:07.252Z,35
2017-10-10T07:40:06.558Z,35
2017-10-10T07:41:06.898Z,30
2017-10-10T07:42:06.874Z,40
2017-10-10T07:43:06.513Z,45
2017-10-10T07:44:06.544Z,60
2017-10-10T07:45:06.198Z,75
2017-10-10T07:46:06.822Z,75
2017-10-10T07:47:06.504Z,70
2017-10-10T07:48:06.457Z,70
2017-10-10T07:49:06.809Z,75
2017-10-10T07:50:06.812Z,85
2017-10-10T07:51:06.086Z,85
2017-10-10T07:52:06.779Z,95
2017-10-10T07:53:06.142Z,115
2017-10-10T07:54:06.397Z,135
2017-10-10T07:55:06.734Z,125
2017-10-10T07:56:06.713Z,110
2017-10-10T07:57:06.366Z,100
2017-10-10T07:58:07.036Z,80
2017-10-10T07:59:06.348Z,75
2017-10-10T08:00:06.696Z,70
2017-10-10T08:01:06.664Z,70
2017-10-10T08:02:06.319Z,70
2017-10-10T08:03:06.996Z,75
2017-10-10T08:04:06.299Z,80
2017-10-10T08:05:06.302Z,85
2017-10-10T08:06:06.989Z,85
2017-10-10T08:07:06.303Z,85
2017-10-10T08:08:05.921Z,95
2017-10-10T08:09:06.588Z,100
2017-10-10T08:10:06.234Z,110
2017-10-10T08:11:06.954Z,125
2017-10-10T08:12:06.226Z,135
2017-10-10T08:13:06.239Z,120
2017-10-10T08:14:06.212Z,100
2017-10-10T08:15:06.199Z,95
2017-10-10T08:16:06.870Z,100
2017-10-10T08:17:06.169Z,105
2017-10-10T08:18:05.816Z,120
2017-10-10T08:19:06.166Z,125
2017-10-10T08:20:06.181Z,125
2017-10-10T08:21:05.795Z,135
2017-10-10T08:22:06.463Z,145
2017-10-10T08:23:06.466Z,150
2017-10-10T08:24:06.776Z,150
2017-10-10T08:25:06.096Z,135
2017-10-10T08:26:06.443Z,120
2017-10-10T08:27:06.087Z,120
2017-10-10T08:28:05.731Z,100
2017-10-10T08:29:05.720Z,100
2017-10-10T08:30:06.761Z,100
2017-10-10T08:31:06.368Z,105
2017-10-10T08:32:06.038Z,120
2017-10-10T08:33:06.010Z,125
2017-10-10T08:34:05.660Z,120
2017-10-10T08:35:05.992Z,115
2017-10-10T08:36:05.676Z,115
2017-10-10T08:37:05.627Z,125
2017-10-10T08:38:06.669Z,120
2017-10-10T08:39:05.631Z,140
2017-10-10T08:40:05.599Z,185
2017-10-10T08:41:05.956Z,230
2017-10-10T08:42:05.921Z,290
2017-10-10T08:43:06.268Z,300
2017-10-10T08:44:06.272Z,270
2017-10-10T08:45:06.248Z,250
2017-10-10T08:46:06.250Z,215
2017-10-10T08:47:06.260Z,200
2017-10-10T08:48:06.223Z,180
2017-10-10T08:49:05.853Z,190
2017-10-10T08:50:05.843Z,185
2017-10-10T08:51:06.173Z,175
2017-10-10T08:52:05.495Z,165
2017-10-10T08:53:05.857Z,145
2017-10-10T08:54:06.232Z,135
2017-10-10T08:55:06.200Z,135
2017-10-10T08:56:05.453Z,155
2017-10-10T08:57:05.444Z,165
2017-10-10T08:58:05.802Z,150
2017-10-10T08:59:06.117Z,130
2017-10-10T09:00:05.756Z,115
2017-10-10T09:01:05.750Z,100
2017-10-10T09:02:05.770Z,90
2017-10-10T09:03:06.082Z,80
2017-10-10T09:04:05.389Z,75
2017-10-10T09:05:05.372Z,75
2017-10-10T09:06:05.700Z,85
2017-10-10T09:07:06.050Z,95
2017-10-10T09:08:05.682Z,105
2017-10-10T09:09:05.335Z,110
2017-10-10T09:10:06.009Z,115
2017-10-10T09:11:05.690Z,120
2017-10-10T09:12:05.849Z,120
2017-10-10T09:13:05.976Z,130
2017-10-10T09:14:05.967Z,135
2017-10-10T09:15:05.669Z,140
2017-10-10T09:16:05.966Z,150
2017-10-10T09:17:05.257Z,170
2017-10-10T09:18:05.602Z,190
2017-10-10T09:19:05.954Z,205
2017-10-10T09:20:05.230Z,215
2017-10-10T09:21:07.048Z,190
2017-10-10T09:22:05.585Z,170
2017-10-10T09:23:05.200Z,155
2017-10-10T09:24:05.192Z,165
2017-10-10T09:25:05.204Z,175
2017-10-10T09:26:05.530Z,190
2017-10-10T09:27:05.516Z,195
2017-10-10T09:28:05.499Z,190
2017-10-10T09:29:05.495Z,175
2017-10-10T09:30:05.178Z,180
2017-10-10T09:31:05.468Z,160
2017-10-10T09:32:05.462Z,150
2017-10-10T09:33:05.452Z,150
2017-10-10T09:34:05.126Z,140
2017-10-10T09:35:05.435Z,150
2017-10-10T09:36:05.441Z,150
2017-10-10T09:37:06.123Z,150
2017-10-10T09:38:05.442Z,160
2017-10-10T09:39:05.397Z,165
2017-10-10T09:40:05.408Z,160
2017-10-10T09:41:05.752Z,145
2017-10-10T09:42:05.714Z,135
2017-10-10T09:43:05.385Z,150
2017-10-10T09:44:05.690Z,145
2017-10-10T09:45:05.012Z,135
2017-10-10T09:46:05.331Z,135
2017-10-10T09:47:05.327Z,160
2017-10-10T09:48:05.329Z,180
2017-10-10T09:49:05.308Z,185
2017-10-10T09:50:04.986Z,220
2017-10-10T09:51:06.342Z,170
2017-10-10T09:52:04.966Z,150
2017-10-10T09:53:05.989Z,150
2017-10-10T09:54:05.973Z,135
2017-10-10T09:55:05.598Z,130
2017-10-10T09:56:05.949Z,150
2017-10-10T09:57:04.920Z,135
2017-10-10T09:58:04.896Z,115
2017-10-10T09:59:05.253Z,150
2017-10-10T10:00:05.557Z,100
2017-10-10T10:01:05.211Z,110
2017-10-10T10:02:05.210Z,145
2017-10-10T10:03:05.531Z,100
2017-10-10T10:04:05.194Z,115
2017-10-10T10:05:05.860Z,125
2017-10-10T10:06:04.832Z,155
2017-10-10T10:07:05.150Z,200
2017-10-10T10:08:05.164Z,190
2017-10-10T10:09:06.159Z,175
2017-10-10T10:10:04.795Z,160
2017-10-10T10:11:05.474Z,150
2017-10-10T10:12:04.761Z,155
2017-10-10T10:13:05.109Z,150
2017-10-10T10:14:05.778Z,130
2017-10-10T10:15:05.097Z,150
2017-10-10T10:16:05.070Z,155
2017-10-10T10:17:04.735Z,140
2017-10-10T10:18:04.713Z,120
2017-10-10T10:19:05.738Z,100
2017-10-10T10:20:05.411Z,100
2017-10-10T10:21:05.069Z,85
2017-10-10T10:22:05.150Z,90
2017-10-10T10:23:05.017Z,120
2017-10-10T10:24:05.030Z,90
2017-10-10T10:25:05.012Z,95
2017-10-10T10:26:05.683Z,100
2017-10-10T10:27:04.648Z,95
2017-10-10T10:28:04.966Z,115
2017-10-10T10:29:04.957Z,160
2017-10-10T10:30:05.312Z,135
2017-10-10T10:31:04.956Z,120
2017-10-10T10:32:04.964Z,100
2017-10-10T10:33:05.636Z,100
2017-10-10T10:34:04.574Z,120
2017-10-10T10:35:04.567Z,120
2017-10-10T10:36:04.927Z,105
2017-10-10T10:37:04.900Z,105
2017-10-10T10:38:05.562Z,130
2017-10-10T10:39:05.209Z,115
2017-10-10T10:40:04.863Z,140
2017-10-10T10:41:04.871Z,175
2017-10-10T10:42:04.509Z,185
2017-10-10T10:43:05.537Z,180
2017-10-10T10:44:10.582Z,155
2017-10-10T10:45:04.839Z,150
2017-10-10T10:46:04.814Z,150
2017-10-10T10:47:05.499Z,150
2017-10-10T10:48:04.465Z,125
2017-10-10T10:49:05.161Z,155
2017-10-10T10:50:05.115Z,150
2017-10-10T10:51:05.464Z,130
2017-10-10T10:52:04.775Z,115
2017-10-10T10:53:04.770Z,95
2017-10-10T10:54:04.741Z,105
2017-10-10T10:55:04.738Z,110
2017-10-10T10:56:04.742Z,110
2017-10-10T10:57:05.069Z,85
2017-10-10T10:58:04.398Z,90
2017-10-10T10:59:04.354Z,100
2017-10-10T11:00:04.698Z,95
2017-10-10T11:01:04.681Z,95
2017-10-10T11:02:05.013Z,105
2017-10-10T11:03:04.838Z,120
2017-10-10T11:04:04.654Z,120
2017-10-10T11:05:04.639Z,115
2017-10-10T11:06:04.971Z,120
2017-10-10T11:07:04.284Z,110
2017-10-10T11:08:04.617Z,110
2017-10-10T11:09:04.957Z,100
2017-10-10T11:10:04.621Z,115
2017-10-10T11:11:04.969Z,95
2017-10-10T11:12:04.934Z,85
2017-10-10T11:13:04.570Z,95
2017-10-10T11:14:05.281Z,100
2017-10-10T11:15:04.554Z,105
2017-10-10T11:16:04.207Z,105
2017-10-10T11:17:04.557Z,115
2017-10-10T11:18:04.548Z,110
2017-10-10T11:19:04.527Z,110
2017-10-10T11:20:04.525Z,115
2017-10-10T11:21:04.502Z,110
2017-10-10T11:22:04.833Z,110
2017-10-10T11:23:04.821Z,110
2017-10-10T11:24:04.836Z,115
2017-10-10T11:25:04.472Z,115
2017-10-10T11:26:04.814Z,100
2017-10-10T11:27:04.452Z,105
2017-10-10T11:28:04.110Z,120
2017-10-10T11:29:04.454Z,145
2017-10-10T11:30:04.769Z,140
2017-10-10T11:31:04.425Z,180
2017-10-10T11:32:04.753Z,225
2017-10-10T11:33:04.401Z,235
2017-10-10T11:34:04.096Z,235
2017-10-10T11:35:04.719Z,245
2017-10-10T11:36:04.708Z,200
2017-10-10T11:37:04.037Z,215
2017-10-10T11:38:04.369Z,275
2017-10-10T11:39:05.037Z,280
2017-10-10T11:40:04.349Z,275
2017-10-10T11:41:04.328Z,245
2017-10-10T11:42:03.980Z,175
2017-10-10T11:43:04.030Z,155
2017-10-10T11:44:04.677Z,150
2017-10-10T11:45:03.960Z,120
2017-10-10T11:46:03.943Z,95
2017-10-10T11:47:03.976Z,100
2017-10-10T11:48:03.981Z,90
2017-10-10T11:49:04.604Z,95
2017-10-10T11:50:04.620Z,95
2017-10-10T11:51:04.281Z,85
2017-10-10T11:52:04.236Z,105
2017-10-10T11:53:04.252Z,95
2017-10-10T11:54:04.223Z,85
2017-10-10T11:55:04.210Z,85
2017-10-10T11:56:03.862Z,95
2017-10-10T11:57:04.216Z,85
2017-10-10T11:58:03.866Z,75
2017-10-10T11:59:04.546Z,70
2017-10-10T12:00:04.866Z,70
2017-10-10T12:01:04.176Z,65
2017-10-10T12:02:04.152Z,65
2017-10-10T12:03:04.481Z,65
2017-10-10T12:04:04.492Z,65
2017-10-10T12:05:04.470Z,75
2017-10-10T12:06:04.123Z,75
2017-10-10T12:07:04.141Z,95
2017-10-10T12:08:04.474Z,100
2017-10-10T12:09:04.112Z,80
2017-10-10T12:10:04.091Z,75
2017-10-10T12:11:04.415Z,75
2017-10-10T12:12:04.408Z,75
2017-10-10T12:13:04.406Z,100
2017-10-10T12:14:03.718Z,145
2017-10-10T12:15:04.041Z,190
2017-10-10T12:16:04.051Z,200
2017-10-10T12:17:04.392Z,230
2017-10-10T12:18:04.727Z,250
2017-10-10T12:19:04.026Z,255
2017-10-10T12:20:04.411Z,245
2017-10-10T12:21:04.330Z,235
2017-10-10T12:22:04.344Z,260
2017-10-10T12:23:03.985Z,205
2017-10-10T12:24:04.305Z,265
2017-10-10T12:25:04.295Z,335
2017-10-10T12:26:04.284Z,295
2017-10-10T12:27:04.325Z,265
2017-10-10T12:28:04.267Z,220
2017-10-10T12:29:03.948Z,210
2017-10-10T12:30:03.911Z,195
2017-10-10T12:31:03.562Z,230
2017-10-10T12:32:03.902Z,285
2017-10-10T12:33:04.242Z,285
2017-10-10T12:34:04.557Z,305
2017-10-10T12:35:04.213Z,275
2017-10-10T12:36:03.543Z,270
2017-10-10T12:37:03.871Z,235
2017-10-10T12:38:03.842Z,300
2017-10-10T12:39:03.829Z,300
2017-10-10T12:40:03.829Z,285
2017-10-10T12:41:03.818Z,285
2017-10-10T12:42:03.810Z,215
2017-10-10T12:43:04.145Z,185
2017-10-10T12:44:03.454Z,150
2017-10-10T12:45:03.445Z,135
2017-10-10T12:46:03.780Z,130
2017-10-10T12:47:03.427Z,110
2017-10-10T12:48:04.134Z,125
2017-10-10T12:49:03.412Z,110
2017-10-10T12:50:03.758Z,85
2017-10-10T12:51:04.091Z,100
2017-10-10T12:52:04.427Z,115
2017-10-10T12:53:03.723Z,105
2017-10-10T12:54:03.577Z,145
2017-10-10T12:55:03.719Z,130
2017-10-10T12:56:03.359Z,120
2017-10-10T12:57:04.060Z,125
2017-10-10T12:58:03.682Z,105
2017-10-10T12:59:03.677Z,85
2017-10-10T13:00:03.670Z,95
2017-10-10T13:01:04.705Z,85
2017-10-10T13:02:03.991Z,90
2017-10-10T13:03:03.641Z,75
2017-10-10T13:04:03.632Z,60
2017-10-10T13:05:03.310Z,70
2017-10-10T13:06:03.638Z,75
2017-10-10T13:07:03.609Z,60
2017-10-10T13:08:03.605Z,50
2017-10-10T13:09:03.590Z,65
2017-10-10T13:10:03.940Z,55
2017-10-10T13:11:03.919Z,60
2017-10-10T13:12:03.231Z,65
2017-10-10T13:13:04.598Z,85
2017-10-10T13:14:03.211Z,110
2017-10-10T13:15:03.880Z,155
2017-10-10T13:16:03.887Z,190
2017-10-10T13:17:03.525Z,190
2017-10-10T13:18:03.183Z,185
2017-10-10T13:19:03.518Z,165
2017-10-10T13:20:03.537Z,145
2017-10-10T13:21:03.489Z,145
2017-10-10T13:22:03.155Z,160
2017-10-10T13:23:03.815Z,145
2017-10-10T13:24:03.809Z,150
2017-10-10T13:25:03.799Z,125
2017-10-10T13:26:03.471Z,135
2017-10-10T13:27:03.849Z,150
2017-10-10T13:28:03.433Z,170
2017-10-10T13:29:03.082Z,170
2017-10-10T13:30:03.762Z,150
2017-10-10T13:31:03.421Z,175
2017-10-10T13:32:04.087Z,135
2017-10-10T13:33:03.391Z,95
2017-10-10T13:34:03.091Z,110
2017-10-10T13:35:03.030Z,145
2017-10-10T13:36:03.710Z,140
2017-10-10T13:37:03.017Z,105
2017-10-10T13:38:03.350Z,90
2017-10-10T13:39:03.339Z,90
2017-10-10T13:40:03.337Z,75
2017-10-10T13:41:03.362Z,70
2017-10-10T13:42:03.320Z,70
2017-10-10T13:43:03.334Z,65
2017-10-10T13:44:02.954Z,55
2017-10-10T13:45:03.628Z,50
2017-10-10T13:46:03.638Z,55
2017-10-10T13:47:02.932Z,60
2017-10-10T13:48:03.281Z,60
2017-10-10T13:49:03.266Z,60
2017-10-10T13:50:02.916Z,50
2017-10-10T13:51:02.912Z,45
2017-10-10T13:52:03.928Z,35
2017-10-10T13:53:03.903Z,40
2017-10-10T13:54:02.876Z,40
2017-10-10T13:55:03.204Z,35
2017-10-10T13:56:02.855Z,40
2017-10-10T13:57:03.540Z,50
2017-10-10T13:58:03.872Z,55
2017-10-10T13:59:03.509Z,40
2017-10-10T14:00:03.171Z,35
2017-10-10T14:01:02.812Z,35
2017-10-10T14:02:03.490Z,35
2017-10-10T14:03:03.132Z,45
2017-10-10T14:04:03.811Z,35
2017-10-10T14:05:03.115Z,30
2017-10-10T14:06:03.469Z,30
2017-10-10T14:07:03.094Z,30
2017-10-10T14:08:03.772Z,35
2017-10-10T14:09:03.768Z,30
2017-10-10T14:10:03.072Z,35
2017-10-10T14:11:03.743Z,25
2017-10-10T14:12:03.049Z,30
2017-10-10T14:13:02.724Z,30
2017-10-10T14:14:03.373Z,40
2017-10-10T14:15:02.709Z,50
2017-10-10T14:16:03.011Z,70
2017-10-10T14:17:03.221Z,60
2017-10-10T14:18:03.050Z,70